This is the latest recevied weather packets stored in our database for station/object IQ8VX-3. If no packets are shown the sender has not sent any weather packets the latest 10 day(s).
| Time | Temp. | Humidity | Pressure | Rain* | Wind** | Luminosity | Snow |
|---|---|---|---|---|---|---|---|
| 1777167361 | 15° C | 87% | 1694.1 hPa | - | - | - | - |
| 1777166161 | 15° C | 87% | 1694.4 hPa | - | - | - | - |
| 1777164961 | 15° C | 88% | 1694.8 hPa | - | - | - | - |
| 1777163760 | 15° C | 90% | 1694.5 hPa | - | - | - | - |
| 1777162560 | 15° C | 90% | 1694.3 hPa | - | - | - | - |
| 1777161360 | 15° C | 91% | 1694.1 hPa | - | - | - | - |
| 1777160160 | 14.44° C | 91% | 1693.4 hPa | - | - | - | - |
| 1777158959 | 14.44° C | 91% | 1692.7 hPa | - | - | - | - |
| 1777157759 | 14.44° C | 90% | 1692.8 hPa | - | - | - | - |
| 1777156559 | 14.44° C | 91% | 1693.2 hPa | - | - | - | - |
| 1777155358 | 13.89° C | 90% | 1692.5 hPa | - | - | - | - |
| 1777154158 | 14.44° C | 90% | 1693.2 hPa | - | - | - | - |
| 1777152958 | 13.89° C | 88% | 1692.2 hPa | - | - | - | - |
| 1777151757 | 14.44° C | 88% | 1692.9 hPa | - | - | - | - |
| 1777150557 | 14.44° C | 86% | 1692.8 hPa | - | - | - | - |
| 1777149357 | 14.44° C | 86% | 1693.3 hPa | - | - | - | - |
| 1777148157 | 13.89° C | 84% | 1692.5 hPa | - | - | - | - |
| 1777146956 | 13.89° C | 82% | 1691.3 hPa | - | - | - | - |
| 1777145756 | 13.89° C | 80% | 1691.6 hPa | - | - | - | - |
| 1777144556 | 13.89° C | 79% | 1692.4 hPa | - | - | - | - |
| 1777143355 | 15° C | 78% | 1694.4 hPa | - | - | - | - |
| 1777142155 | 15° C | 77% | 1695 hPa | - | - | - | - |
| 1777140955 | 15.56° C | 76% | 1696.7 hPa | - | - | - | - |
| 1777139754 | 16.11° C | 76% | 1697.7 hPa | - | - | - | - |
| 1777138554 | 16.67° C | 74% | 1698.5 hPa | - | - | - | - |
* Rain since midnight (hover to see other rain measurements)
** Current wind speed in m/s (hover to see current wind gust speed)